Time;durP1;ratioP1;P1;durP2;ratioP2;P2;SDS_P1;SDS_P2;PMS_P1;PMS_P2;Temp;Humidity;BMP_temperature;BMP_pressure;BME280_temperature;BME280_humidity;BME280_pressure;Samples;Min_cycle;Max_cycle;Signal;HPM_P1;HPM_P2
2022/03/05 00:01:13;;;;;;;9.33;4.13;;;1.40;99.90;;;;;;4436507;32;20237;-68
2022/03/05 00:03:40;;;;;;;7.73;4.33;;;1.40;99.90;;;;;;4430183;32;20206;-69
2022/03/05 00:06:07;;;;;;;6.83;3.63;;;1.40;99.90;;;;;;4425144;32;20186;-69
2022/03/05 00:08:34;;;;;;;8.03;4.10;;;1.40;99.90;;;;;;4426591;32;20175;-69
2022/03/05 00:11:00;;;;;;;7.30;3.80;;;1.40;99.90;;;;;;4424904;32;20169;-69
2022/03/05 00:13:28;;;;;;;6.97;3.33;;;1.40;99.90;;;;;;4426382;32;20451;-69
2022/03/05 00:15:55;;;;;;;6.60;3.53;;;1.30;99.90;;;;;;4429864;32;20493;-69
2022/03/05 00:18:22;;;;;;;5.43;3.30;;;1.30;99.90;;;;;;4441299;32;20170;-69
2022/03/05 00:20:51;;;;;;;7.57;3.57;;;1.30;99.90;;;;;;4440293;32;20173;-70
2022/03/05 00:23:18;;;;;;;6.37;3.27;;;1.30;99.90;;;;;;4441655;32;20183;-69
2022/03/05 00:25:45;;;;;;;6.43;3.60;;;1.30;99.90;;;;;;4440279;32;20185;-69
2022/03/05 00:28:12;;;;;;;7.27;3.53;;;1.30;99.90;;;;;;4455993;32;20150;-69
2022/03/05 00:30:39;;;;;;;7.60;3.50;;;1.30;99.90;;;;;;4456500;32;20196;-69
2022/03/05 00:33:05;;;;;;;6.10;3.30;;;1.30;99.90;;;;;;4441684;32;20447;-69
2022/03/05 00:35:33;;;;;;;5.13;3.03;;;1.20;99.90;;;;;;4441877;32;20194;-70
2022/03/05 00:38:00;;;;;;;7.30;3.33;;;1.20;99.90;;;;;;4442040;32;20441;-69
2022/03/05 00:40:27;;;;;;;4.50;2.93;;;1.20;99.90;;;;;;4455192;32;20154;-69
2022/03/05 00:42:54;;;;;;;4.27;2.80;;;1.20;99.90;;;;;;4441913;32;20182;-70
2022/03/05 00:45:21;;;;;;;5.40;2.90;;;1.20;99.90;;;;;;4441880;32;20174;-69
2022/03/05 00:47:48;;;;;;;5.60;2.73;;;1.30;99.90;;;;;;4448836;32;20234;-69
2022/03/05 00:50:15;;;;;;;4.90;2.80;;;1.30;99.90;;;;;;4426006;32;20610;-69
2022/03/05 00:52:42;;;;;;;3.70;2.50;;;1.40;99.90;;;;;;4425971;32;20178;-69
2022/03/05 00:55:09;;;;;;;4.77;2.70;;;1.40;99.90;;;;;;4412889;32;20201;-69
2022/03/05 00:57:36;;;;;;;3.87;2.30;;;1.40;99.90;;;;;;4428784;32;20447;-69
2022/03/05 01:00:04;;;;;;;4.43;2.40;;;1.40;99.90;;;;;;4427990;32;20174;-69
2022/03/05 01:02:31;;;;;;;3.37;2.10;;;1.50;99.90;;;;;;4441942;32;20512;-69
2022/03/05 01:04:58;;;;;;;3.97;2.30;;;1.50;99.90;;;;;;4428798;32;20179;-69
2022/03/05 01:07:25;;;;;;;3.87;2.23;;;1.50;99.90;;;;;;4429133;32;20241;-69
2022/03/05 01:09:51;;;;;;;4.80;2.10;;;1.50;99.90;;;;;;4427631;32;20233;-69
2022/03/05 01:12:18;;;;;;;3.90;2.27;;;1.40;99.90;;;;;;4442501;32;20147;-69
2022/03/05 01:14:45;;;;;;;3.77;2.20;;;1.40;99.90;;;;;;4441978;32;20142;-69
2022/03/05 01:17:12;;;;;;;4.77;2.30;;;1.50;99.90;;;;;;4442111;32;20194;-69
2022/03/05 01:19:39;;;;;;;4.37;2.30;;;1.50;99.90;;;;;;4429058;32;20448;-69
2022/03/05 01:22:06;;;;;;;3.70;1.90;;;1.50;99.90;;;;;;4429008;32;20208;-69
2022/03/05 01:24:33;;;;;;;2.93;2.17;;;1.50;99.90;;;;;;4428629;32;20241;-69
2022/03/05 01:27:00;;;;;;;3.50;2.20;;;1.50;99.90;;;;;;4427864;32;20253;-70
2022/03/05 01:29:26;;;;;;;4.23;2.50;;;1.50;99.90;;;;;;4443507;32;20527;-69
2022/03/05 01:31:53;;;;;;;4.10;2.53;;;1.50;99.90;;;;;;4429260;32;20478;-69
2022/03/05 01:34:20;;;;;;;3.13;2.00;;;1.50;99.90;;;;;;4429000;32;20554;-69
2022/03/05 01:36:47;;;;;;;4.80;2.10;;;1.40;99.90;;;;;;4427522;32;20198;-69
2022/03/05 01:39:15;;;;;;;4.13;2.30;;;1.30;99.90;;;;;;4429001;32;20210;-69
2022/03/05 01:41:44;;;;;;;3.13;2.30;;;1.30;99.90;;;;;;4428333;32;20258;-69
2022/03/05 01:44:10;;;;;;;4.80;2.47;;;1.40;99.90;;;;;;4428652;32;20182;-69
2022/03/05 01:46:39;;;;;;;3.60;2.30;;;1.40;99.90;;;;;;4427454;32;20171;-69
2022/03/05 01:49:11;;;;;;;4.90;2.13;;;1.40;99.90;;;;;;4426949;32;20546;-70
2022/03/05 01:51:39;;;;;;;5.23;2.30;;;1.40;99.90;;;;;;4426997;32;20258;-69
2022/03/05 01:54:08;;;;;;;4.00;2.37;;;1.40;99.90;;;;;;4427443;32;20201;-69
2022/03/05 01:56:36;;;;;;;3.37;2.20;;;1.40;99.90;;;;;;4428628;32;20194;-69
2022/03/05 01:59:04;;;;;;;3.97;2.30;;;1.40;99.90;;;;;;4428987;32;20169;-69
2022/03/05 02:01:31;;;;;;;3.67;2.40;;;1.40;99.90;;;;;;4428533;32;20236;-69
2022/03/05 02:03:59;;;;;;;2.70;2.13;;;1.30;99.90;;;;;;4442679;32;20205;-70
2022/03/05 02:06:27;;;;;;;6.30;2.50;;;1.30;99.90;;;;;;4442961;32;20135;-69
2022/03/05 02:08:57;;;;;;;6.60;2.60;;;1.30;99.90;;;;;;4428336;32;20607;-69
2022/03/05 02:11:25;;;;;;;4.83;2.50;;;1.30;99.90;;;;;;4427481;32;20210;-69
2022/03/05 02:13:53;;;;;;;4.83;2.30;;;1.30;99.90;;;;;;4428541;32;20163;-69
2022/03/05 02:16:20;;;;;;;3.43;2.30;;;1.30;99.90;;;;;;4426667;32;20241;-69
2022/03/05 02:18:49;;;;;;;3.27;2.27;;;1.30;99.90;;;;;;4426595;32;20201;-69
2022/03/05 02:21:16;;;;;;;3.90;2.37;;;1.30;99.90;;;;;;4441075;32;20469;-69
2022/03/05 02:23:44;;;;;;;3.83;2.53;;;1.30;99.90;;;;;;4440530;32;20170;-69
2022/03/05 02:26:11;;;;;;;4.87;2.50;;;1.30;99.90;;;;;;4428523;32;20233;-69
2022/03/05 02:28:38;;;;;;;4.87;2.50;;;1.30;99.90;;;;;;4426856;32;20516;-70
2022/03/05 02:31:07;;;;;;;5.13;2.60;;;1.40;99.90;;;;;;4426992;32;20178;-70
2022/03/05 02:33:34;;;;;;;3.97;2.47;;;1.40;99.90;;;;;;4427973;32;20233;-70
2022/03/05 02:36:03;;;;;;;3.20;2.23;;;1.40;99.90;;;;;;4426440;32;20202;-69
2022/03/05 02:38:30;;;;;;;5.37;2.70;;;1.40;99.90;;;;;;4428196;32;20257;-69
2022/03/05 02:40:57;;;;;;;2.67;2.03;;;1.40;99.90;;;;;;4427192;32;20162;-69
2022/03/05 02:43:25;;;;;;;3.53;2.20;;;1.40;99.90;;;;;;4428230;32;20175;-70
2022/03/05 02:45:52;;;;;;;4.43;2.47;;;1.40;99.90;;;;;;4426581;32;20227;-70
2022/03/05 02:48:20;;;;;;;4.00;2.40;;;1.40;99.90;;;;;;4426231;32;20165;-70
2022/03/05 02:50:49;;;;;;;4.10;2.40;;;1.40;99.90;;;;;;4427883;32;20230;-70
2022/03/05 02:53:17;;;;;;;4.07;2.53;;;1.40;99.90;;;;;;4427708;32;20254;-69
2022/03/05 02:55:44;;;;;;;4.27;2.40;;;1.40;99.90;;;;;;4427333;32;20246;-69
2022/03/05 02:58:11;;;;;;;4.70;2.90;;;1.40;99.90;;;;;;4427724;32;20261;-69
2022/03/05 03:00:39;;;;;;;3.47;2.70;;;1.40;99.90;;;;;;4427287;32;20201;-70
2022/03/05 03:03:06;;;;;;;4.17;2.57;;;1.40;99.90;;;;;;4425749;32;20173;-69
2022/03/05 03:05:33;;;;;;;3.60;2.67;;;1.40;99.90;;;;;;4427784;32;20179;-69
2022/03/05 03:08:00;;;;;;;4.23;2.40;;;1.40;99.90;;;;;;4426454;32;20190;-69
2022/03/05 03:10:26;;;;;;;5.13;2.57;;;1.30;99.90;;;;;;4426096;32;20201;-69
2022/03/05 03:12:53;;;;;;;6.23;2.73;;;1.30;99.90;;;;;;4426989;32;20257;-69
2022/03/05 03:15:20;;;;;;;3.73;2.37;;;1.30;99.90;;;;;;4427791;32;20579;-70
2022/03/05 03:17:49;;;;;;;4.07;2.70;;;1.30;99.90;;;;;;4425533;32;20174;-69
2022/03/05 03:20:22;;;;;;;4.30;2.60;;;1.30;99.90;;;;;;4439677;32;20505;-69
2022/03/05 03:22:49;;;;;;;5.13;2.67;;;1.30;99.90;;;;;;4425533;32;20274;-69
2022/03/05 03:25:16;;;;;;;4.50;2.70;;;1.30;99.90;;;;;;4425561;32;20175;-70
2022/03/05 03:27:43;;;;;;;4.23;2.57;;;1.30;99.90;;;;;;4440859;32;20176;-69
2022/03/05 03:30:11;;;;;;;5.50;3.03;;;1.30;99.90;;;;;;4441710;32;20174;-70
2022/03/05 03:32:39;;;;;;;5.63;2.93;;;1.30;99.90;;;;;;4440896;32;20148;-69
2022/03/05 03:35:07;;;;;;;5.50;2.63;;;1.30;99.90;;;;;;4440976;32;20524;-70
2022/03/05 03:37:35;;;;;;;4.00;2.73;;;1.20;99.90;;;;;;4425795;32;20223;-69
2022/03/05 03:40:05;;;;;;;5.23;3.00;;;1.20;99.90;;;;;;4427200;32;20237;-69
2022/03/05 03:42:32;;;;;;;5.50;2.83;;;1.30;99.90;;;;;;4425315;32;20604;-69
2022/03/05 03:45:00;;;;;;;4.83;2.63;;;1.30;99.90;;;;;;4425418;32;20259;-70
2022/03/05 03:47:26;;;;;;;5.83;2.63;;;1.30;99.90;;;;;;4426911;32;20209;-70
2022/03/05 03:49:53;;;;;;;4.90;2.97;;;1.20;99.90;;;;;;4425471;32;20194;-69
2022/03/05 03:52:20;;;;;;;6.40;2.77;;;1.20;99.90;;;;;;4426941;32;20170;-69
2022/03/05 03:54:48;;;;;;;4.30;2.73;;;1.20;99.90;;;;;;4440782;32;20257;-70
2022/03/05 03:57:15;;;;;;;4.17;2.77;;;1.10;99.90;;;;;;4427306;32;20202;-71
2022/03/05 03:59:43;;;;;;;7.43;2.70;;;1.10;99.90;;;;;;4441412;32;20162;-70
2022/03/05 04:02:10;;;;;;;5.43;2.93;;;1.10;99.90;;;;;;4425315;32;20242;-71
2022/03/05 04:04:37;;;;;;;5.80;2.83;;;1.10;99.90;;;;;;4425094;32;20234;-70
2022/03/05 04:09:50;;;;;;;5.40;2.87;;;1.10;99.90;;;;;;4425588;32;20189;-69
2022/03/05 04:12:16;;;;;;;4.87;2.80;;;1.10;99.90;;;;;;4426876;32;20479;-69
2022/03/05 04:14:44;;;;;;;4.33;2.90;;;1.10;99.90;;;;;;4425480;32;20178;-69
2022/03/05 04:17:11;;;;;;;7.17;2.90;;;1.10;99.90;;;;;;4426710;32;20167;-69
2022/03/05 04:19:38;;;;;;;4.50;2.87;;;1.10;99.90;;;;;;4412724;32;20217;-70
2022/03/05 04:22:05;;;;;;;6.03;3.10;;;1.10;99.90;;;;;;4425841;32;20257;-70
2022/03/05 04:24:32;;;;;;;6.23;3.00;;;1.20;99.90;;;;;;4426407;32;20255;-71
2022/03/05 04:26:59;;;;;;;5.10;3.00;;;1.20;99.90;;;;;;4426081;32;20240;-70
2022/03/05 04:29:26;;;;;;;5.37;2.90;;;1.20;99.90;;;;;;4441217;32;20197;-70
2022/03/05 04:31:53;;;;;;;7.03;3.07;;;1.10;99.90;;;;;;4428893;32;20262;-70
2022/03/05 04:34:20;;;;;;;6.30;3.17;;;1.10;99.90;;;;;;4428530;32;20480;-69
2022/03/05 04:36:47;;;;;;;6.67;3.20;;;1.10;99.90;;;;;;4428426;32;20209;-70
2022/03/05 04:39:14;;;;;;;5.53;3.10;;;1.10;99.90;;;;;;4428320;32;20245;-70
2022/03/05 04:41:41;;;;;;;6.10;3.17;;;1.10;99.90;;;;;;4428615;32;20253;-70
2022/03/05 04:44:09;;;;;;;6.13;3.37;;;1.10;99.90;;;;;;4428227;32;20230;-69
2022/03/05 04:46:36;;;;;;;6.83;3.47;;;1.10;99.90;;;;;;4427968;32;20206;-70
2022/03/05 04:49:03;;;;;;;6.07;3.30;;;1.10;99.90;;;;;;4429815;32;20231;-70
2022/03/05 04:51:30;;;;;;;6.70;3.70;;;1.10;99.90;;;;;;4444157;32;20226;-70
2022/03/05 04:53:57;;;;;;;6.00;3.13;;;1.10;99.90;;;;;;4427725;32;20217;-70
2022/03/05 04:56:24;;;;;;;5.23;3.50;;;1.10;99.90;;;;;;4428465;32;20602;-70
2022/03/05 04:58:51;;;;;;;6.00;3.13;;;1.00;99.90;;;;;;4429500;32;20201;-70
2022/03/05 05:01:18;;;;;;;5.63;3.40;;;1.00;99.90;;;;;;4428236;32;20197;-70
2022/03/05 05:03:46;;;;;;;6.30;3.33;;;1.10;99.90;;;;;;4429617;32;20224;-70
2022/03/05 05:06:13;;;;;;;5.03;3.20;;;1.10;99.90;;;;;;4441747;32;20198;-69
2022/03/05 05:08:40;;;;;;;5.33;3.03;;;1.10;99.90;;;;;;4427381;32;20239;-70
2022/03/05 05:11:08;;;;;;;5.57;3.17;;;1.00;99.90;;;;;;4429180;32;20183;-70
2022/03/05 05:13:35;;;;;;;5.33;3.43;;;1.00;99.90;;;;;;4427382;32;20193;-70
2022/03/05 05:16:02;;;;;;;5.33;3.27;;;1.00;99.90;;;;;;4427295;32;20193;-70
2022/03/05 05:18:29;;;;;;;7.30;3.50;;;1.00;99.90;;;;;;4443263;32;20210;-70
2022/03/05 05:20:55;;;;;;;6.43;3.40;;;0.90;99.90;;;;;;4429474;32;20214;-70
2022/03/05 05:23:22;;;;;;;6.00;3.60;;;0.90;99.90;;;;;;4428861;32;20202;-70
2022/03/05 05:25:49;;;;;;;8.17;3.70;;;1.00;99.90;;;;;;4429279;32;20182;-70
2022/03/05 05:28:16;;;;;;;6.80;3.83;;;0.90;99.90;;;;;;4428073;32;20225;-70
2022/03/05 05:30:46;;;;;;;6.67;3.33;;;0.90;99.90;;;;;;4428069;32;20629;-70
2022/03/05 05:33:13;;;;;;;6.80;3.97;;;0.90;99.90;;;;;;4442570;32;20187;-70
2022/03/05 05:35:40;;;;;;;7.73;4.07;;;0.90;99.90;;;;;;4428750;32;20499;-70
2022/03/05 05:38:07;;;;;;;6.07;3.67;;;0.90;99.90;;;;;;4429283;32;20205;-71
2022/03/05 05:40:34;;;;;;;7.80;4.13;;;0.90;99.90;;;;;;4428507;32;20186;-70
2022/03/05 05:43:01;;;;;;;6.33;3.60;;;0.90;99.90;;;;;;4428020;32;20186;-70
2022/03/05 05:45:28;;;;;;;7.13;3.83;;;1.00;99.90;;;;;;4427803;32;20174;-71
2022/03/05 05:47:55;;;;;;;7.57;4.10;;;1.00;99.90;;;;;;4428174;32;20539;-70
2022/03/05 05:50:22;;;;;;;6.93;3.90;;;1.00;99.90;;;;;;4428048;32;20525;-70
2022/03/05 05:52:49;;;;;;;7.37;4.00;;;1.00;99.90;;;;;;4442857;32;20186;-70
2022/03/05 05:55:15;;;;;;;7.37;4.40;;;1.00;99.90;;;;;;4426938;32;20225;-70
2022/03/05 05:57:42;;;;;;;7.57;4.50;;;1.00;99.90;;;;;;4441683;32;20173;-70
2022/03/05 06:00:10;;;;;;;8.83;4.57;;;0.90;99.90;;;;;;4442192;32;20182;-70
2022/03/05 06:02:37;;;;;;;8.40;4.27;;;1.00;99.90;;;;;;4428438;32;20614;-70
2022/03/05 06:05:04;;;;;;;7.43;4.40;;;1.00;99.90;;;;;;4428518;32;20205;-70
2022/03/05 06:07:31;;;;;;;7.43;4.20;;;1.00;99.90;;;;;;4427089;32;20229;-71
2022/03/05 06:09:57;;;;;;;7.93;4.30;;;1.00;99.90;;;;;;4428987;32;20212;-71
2022/03/05 06:12:24;;;;;;;9.57;4.70;;;1.10;99.90;;;;;;4428331;32;20185;-71
2022/03/05 06:14:51;;;;;;;7.23;4.30;;;1.10;99.90;;;;;;4426870;32;20204;-70
2022/03/05 06:17:18;;;;;;;8.67;4.53;;;1.20;99.90;;;;;;4428102;32;20224;-71
2022/03/05 06:19:45;;;;;;;7.83;4.33;;;1.20;99.90;;;;;;4442378;32;20202;-71
2022/03/05 06:22:12;;;;;;;7.90;4.70;;;1.20;99.90;;;;;;4427684;32;20190;-71
2022/03/05 06:24:38;;;;;;;8.37;4.40;;;1.20;99.90;;;;;;4425754;32;20208;-71
2022/03/05 06:27:05;;;;;;;7.93;4.23;;;1.20;99.90;;;;;;4442303;32;20165;-71
2022/03/05 06:29:32;;;;;;;7.57;4.43;;;1.20;99.90;;;;;;4428456;32;20254;-71
2022/03/05 06:31:59;;;;;;;8.47;4.60;;;1.20;99.90;;;;;;4426877;32;20209;-69
2022/03/05 06:34:27;;;;;;;9.70;4.57;;;1.20;99.90;;;;;;4426527;32;20204;-70
2022/03/05 06:36:55;;;;;;;8.47;4.43;;;1.20;99.90;;;;;;4428332;32;20175;-73
2022/03/05 06:39:22;;;;;;;7.67;4.30;;;1.20;99.90;;;;;;4426204;32;20433;-70
2022/03/05 06:41:49;;;;;;;8.57;4.33;;;1.20;99.90;;;;;;4426061;32;20185;-69
2022/03/05 06:44:16;;;;;;;8.43;4.60;;;1.20;99.90;;;;;;4427897;32;20276;-69
2022/03/05 06:46:43;;;;;;;8.57;4.40;;;1.30;99.90;;;;;;4426981;32;20250;-72
2022/03/05 06:49:10;;;;;;;7.43;4.27;;;1.30;99.90;;;;;;4429044;32;20182;-70
2022/03/05 06:51:37;;;;;;;7.77;4.20;;;1.30;99.90;;;;;;4440204;32;20490;-71
2022/03/05 06:54:04;;;;;;;7.67;4.10;;;1.30;99.90;;;;;;4442234;32;20193;-70
2022/03/05 06:56:31;;;;;;;9.57;4.20;;;1.30;99.90;;;;;;4457231;32;20170;-70
2022/03/05 06:58:58;;;;;;;7.13;4.60;;;1.30;99.90;;;;;;4441789;32;20182;-70
2022/03/05 07:01:25;;;;;;;8.37;4.30;;;1.30;99.90;;;;;;4443395;32;20175;-69
2022/03/05 07:03:52;;;;;;;8.00;4.60;;;1.30;99.90;;;;;;4441471;32;20181;-69
2022/03/05 07:06:19;;;;;;;7.30;4.30;;;1.40;99.90;;;;;;4441807;32;20169;-70
2022/03/05 07:08:45;;;;;;;7.37;4.03;;;1.50;99.90;;;;;;4455861;32;20162;-70
2022/03/05 07:11:12;;;;;;;6.83;3.97;;;1.60;99.90;;;;;;4442744;32;20260;-71
2022/03/05 07:13:39;;;;;;;6.50;3.87;;;1.70;99.90;;;;;;4441859;32;20211;-71
2022/03/05 07:16:06;;;;;;;8.17;4.20;;;1.70;99.90;;;;;;4442740;32;20218;-70
2022/03/05 07:18:33;;;;;;;7.50;4.23;;;1.70;99.90;;;;;;4441491;32;20493;-71
2022/03/05 07:21:00;;;;;;;6.63;4.47;;;1.70;99.90;;;;;;4441568;32;20534;-70
2022/03/05 07:23:27;;;;;;;6.70;4.20;;;1.80;99.90;;;;;;4440881;32;20256;-73
2022/03/05 07:25:54;;;;;;;5.77;3.77;;;1.90;99.90;;;;;;4441465;32;20549;-72
2022/03/05 07:28:21;;;;;;;7.83;4.00;;;2.00;99.90;;;;;;4441670;32;20186;-71
2022/03/05 07:30:48;;;;;;;6.57;3.60;;;2.00;99.90;;;;;;4436139;32;20508;-71
2022/03/05 07:33:15;;;;;;;6.63;3.80;;;2.10;99.90;;;;;;4430439;32;20209;-71
2022/03/05 07:35:42;;;;;;;4.97;3.57;;;2.20;99.90;;;;;;4425520;32;20250;-71
2022/03/05 07:38:09;;;;;;;6.20;3.50;;;2.10;99.90;;;;;;4440105;32;20206;-71
2022/03/05 07:40:36;;;;;;;6.87;3.47;;;2.10;99.90;;;;;;4440134;32;20181;-71
2022/03/05 07:43:02;;;;;;;6.37;3.70;;;2.10;99.90;;;;;;4440458;32;20391;-71
2022/03/05 07:45:29;;;;;;;5.70;3.80;;;2.20;99.90;;;;;;4439905;32;20160;-71
2022/03/05 07:47:56;;;;;;;6.70;3.60;;;2.20;99.90;;;;;;4440483;32;20196;-71
2022/03/05 07:50:23;;;;;;;5.93;3.50;;;2.30;99.90;;;;;;4426353;32;20257;-71
2022/03/05 07:52:50;;;;;;;5.73;3.70;;;2.40;99.90;;;;;;4425034;32;20434;-71
2022/03/05 07:55:17;;;;;;;5.87;3.47;;;2.50;99.90;;;;;;4440971;32;20230;-71
2022/03/05 07:57:44;;;;;;;5.97;3.80;;;2.60;99.90;;;;;;4440963;32;20139;-72
2022/03/05 08:00:11;;;;;;;5.37;3.33;;;2.60;99.90;;;;;;4425474;32;20243;-71
2022/03/05 08:02:53;;;;;;;5.27;3.60;;;2.70;99.90;;;;;;4428721;32;20254;-71
2022/03/05 08:05:21;;;;;;;6.03;3.50;;;2.80;99.90;;;;;;4438348;32;20182;-71
2022/03/05 08:07:48;;;;;;;7.33;3.70;;;2.70;99.90;;;;;;4440767;32;20186;-70
2022/03/05 08:10:15;;;;;;;7.17;3.43;;;2.70;99.90;;;;;;4456601;32;20177;-71
2022/03/05 08:12:42;;;;;;;6.57;3.50;;;2.70;99.90;;;;;;4440611;32;20267;-70
2022/03/05 08:15:09;;;;;;;5.57;3.40;;;2.70;99.90;;;;;;4441053;32;20526;-71
2022/03/05 08:17:47;;;;;;;5.37;3.17;;;2.80;99.90;;;;;;4442684;32;20241;-71
2022/03/05 08:20:14;;;;;;;7.33;3.27;;;3.00;99.90;;;;;;4455478;32;20158;-72
2022/03/05 08:22:41;;;;;;;5.83;3.23;;;3.10;99.90;;;;;;4440042;32;20237;-71
2022/03/05 08:25:08;;;;;;;5.70;3.20;;;3.20;99.90;;;;;;4441988;32;20504;-70
2022/03/05 08:27:34;;;;;;;5.60;3.40;;;3.40;99.90;;;;;;4440401;32;20174;-70
2022/03/05 08:30:03;;;;;;;6.00;3.03;;;3.50;99.90;;;;;;4429294;32;20243;-71
2022/03/05 08:32:30;;;;;;;8.40;3.30;;;3.60;99.90;;;;;;4425987;32;20174;-71
2022/03/05 08:34:56;;;;;;;6.50;3.33;;;3.70;99.90;;;;;;4424975;32;20196;-72
2022/03/05 08:37:24;;;;;;;4.63;3.20;;;3.80;99.90;;;;;;4425352;32;20200;-71
2022/03/05 08:39:50;;;;;;;6.10;3.37;;;3.90;99.90;;;;;;4426076;32;20178;-71
2022/03/05 08:42:17;;;;;;;5.43;3.20;;;4.00;99.90;;;;;;4425412;32;20262;-71
2022/03/05 08:44:44;;;;;;;5.27;3.20;;;4.10;99.90;;;;;;4440903;32;20136;-71
2022/03/05 08:47:11;;;;;;;6.27;3.47;;;4.10;99.90;;;;;;4426132;32;20225;-71
2022/03/05 08:49:38;;;;;;;5.50;3.27;;;4.10;99.90;;;;;;4439117;32;20166;-72
2022/03/05 08:52:06;;;;;;;7.93;3.80;;;4.10;99.90;;;;;;4442587;32;20214;-71
2022/03/05 08:54:33;;;;;;;5.57;3.40;;;4.20;99.90;;;;;;4430660;32;20258;-71
2022/03/05 08:56:59;;;;;;;5.50;3.30;;;4.30;99.90;;;;;;4426662;32;20247;-73
2022/03/05 08:59:26;;;;;;;5.33;2.90;;;4.40;99.90;;;;;;4424477;32;20191;-71
2022/03/05 09:01:53;;;;;;;5.03;3.23;;;4.40;99.90;;;;;;4424651;32;20546;-72
2022/03/05 09:04:20;;;;;;;6.20;3.40;;;4.40;99.90;;;;;;4425525;32;20172;-72
2022/03/05 09:06:47;;;;;;;5.53;3.10;;;4.50;99.90;;;;;;4424650;32;20539;-72
2022/03/05 09:09:14;;;;;;;4.00;2.63;;;4.70;99.90;;;;;;4438798;32;20169;-70
2022/03/05 09:11:41;;;;;;;5.20;3.00;;;4.70;99.90;;;;;;4435674;32;20458;-70
2022/03/05 09:14:08;;;;;;;5.80;3.10;;;4.90;99.90;;;;;;4440920;32;20182;-70
2022/03/05 09:16:37;;;;;;;4.50;3.07;;;4.90;99.90;;;;;;4442271;32;20174;-71
2022/03/05 09:19:04;;;;;;;4.20;2.80;;;5.00;99.90;;;;;;4443900;32;20267;-71
2022/03/05 09:21:34;;;;;;;5.20;2.70;;;5.00;99.90;;;;;;4442630;32;20167;-71
2022/03/05 09:24:03;;;;;;;4.20;2.70;;;5.00;99.90;;;;;;4443080;32;20173;-71
2022/03/05 09:26:30;;;;;;;3.87;2.50;;;5.10;99.90;;;;;;4451727;32;20154;-70
2022/03/05 09:28:59;;;;;;;4.77;2.80;;;5.20;99.90;;;;;;4441408;32;20195;-70
2022/03/05 09:31:26;;;;;;;4.63;2.77;;;5.20;99.90;;;;;;4453388;32;20197;-71
2022/03/05 09:33:53;;;;;;;3.70;2.20;;;5.10;99.90;;;;;;4437665;32;20198;-72
2022/03/05 09:36:20;;;;;;;3.67;2.23;;;4.90;99.90;;;;;;4437796;32;20205;-72
2022/03/05 09:38:48;;;;;;;3.40;2.13;;;4.80;99.90;;;;;;4433386;32;20230;-72
2022/03/05 09:41:16;;;;;;;2.50;1.80;;;4.60;99.90;;;;;;4451799;32;20219;-72
2022/03/05 09:43:43;;;;;;;3.47;2.10;;;4.60;99.90;;;;;;4441995;32;20174;-71
2022/03/05 09:46:11;;;;;;;3.47;2.23;;;4.50;99.70;;;;;;4440073;32;20189;-72
2022/03/05 09:48:40;;;;;;;3.60;2.03;;;4.30;99.40;;;;;;4441377;32;20230;-72
2022/03/05 09:51:07;;;;;;;3.70;2.30;;;4.30;99.90;;;;;;4441202;32;20217;-72
2022/03/05 09:53:34;;;;;;;3.43;2.10;;;4.30;99.90;;;;;;4448830;32;20670;-72
2022/03/05 09:56:01;;;;;;;4.70;2.27;;;4.30;99.90;;;;;;4447446;32;20204;-72
2022/03/05 09:58:49;;;;;;;2.73;1.90;;;4.30;99.90;;;;;;4440613;32;20204;-72
2022/03/05 10:01:17;;;;;;;3.10;2.20;;;4.30;99.90;;;;;;4432033;32;20191;-71
2022/03/05 10:03:46;;;;;;;4.27;2.30;;;4.30;99.90;;;;;;4450567;32;20167;-70
2022/03/05 10:06:28;;;;;;;3.60;2.10;;;4.20;99.80;;;;;;4441382;32;20597;-71
2022/03/05 10:08:56;;;;;;;4.63;2.10;;;4.10;99.90;;;;;;4448370;32;20172;-71
2022/03/05 10:11:38;;;;;;;3.70;2.33;;;4.10;99.90;;;;;;4454567;32;20155;-71
2022/03/05 10:14:16;;;;;;;4.23;2.40;;;4.00;99.90;;;;;;4454604;32;20153;-71
2022/03/05 10:16:43;;;;;;;4.23;2.23;;;3.90;99.90;;;;;;4438983;32;20174;-72
2022/03/05 10:19:21;;;;;;;3.43;2.20;;;3.90;99.90;;;;;;4452685;32;20138;-72
2022/03/05 10:22:00;;;;;;;3.27;2.10;;;3.90;99.90;;;;;;4433532;32;20499;-71
2022/03/05 10:24:38;;;;;;;3.33;2.17;;;3.80;99.90;;;;;;4439768;32;20244;-72
2022/03/05 10:27:08;;;;;;;3.20;1.90;;;3.90;99.90;;;;;;4452756;32;20187;-72
2022/03/05 10:29:39;;;;;;;2.47;1.70;;;3.80;99.90;;;;;;4441637;32;20204;-72
2022/03/05 10:32:09;;;;;;;1.83;1.60;;;3.80;96.40;;;;;;4439810;32;20208;-72
2022/03/05 10:34:44;;;;;;;2.37;1.73;;;3.70;96.70;;;;;;4453891;32;20413;-72
2022/03/05 10:37:11;;;;;;;3.77;2.23;;;3.50;97.70;;;;;;4440978;32;20223;-71
2022/03/05 10:39:38;;;;;;;2.93;2.17;;;3.50;99.70;;;;;;4439807;32;20226;-71
2022/03/05 10:42:23;;;;;;;5.43;2.20;;;3.40;99.90;;;;;;4439579;32;20146;-71
2022/03/05 10:45:02;;;;;;;3.03;2.20;;;3.30;99.90;;;;;;4440900;32;20544;-72
2022/03/05 10:47:40;;;;;;;3.33;2.07;;;3.40;99.90;;;;;;4440970;32;20170;-71
2022/03/05 10:50:30;;;;;;;4.40;2.20;;;3.30;99.90;;;;;;4455542;32;20541;-73
2022/03/05 10:53:02;;;;;;;3.63;2.20;;;3.40;99.90;;;;;;4440828;32;20435;-72
2022/03/05 10:55:35;;;;;;;4.80;2.30;;;3.40;99.90;;;;;;4441226;32;20175;-71
2022/03/05 10:58:14;;;;;;;3.70;2.20;;;3.40;99.90;;;;;;4453911;32;20469;-70
2022/03/05 11:00:41;;;;;;;3.37;2.30;;;3.50;99.90;;;;;;4455476;32;20134;-72
2022/03/05 11:03:09;;;;;;;3.20;2.30;;;3.50;99.90;;;;;;4441367;32;20449;-71
2022/03/05 11:05:37;;;;;;;3.30;2.10;;;3.60;99.90;;;;;;4439644;32;20542;-71
2022/03/05 11:08:06;;;;;;;3.27;2.03;;;3.60;99.90;;;;;;4453433;32;20210;-72
2022/03/05 11:10:33;;;;;;;4.30;2.17;;;3.60;99.90;;;;;;4439421;32;20224;-71
2022/03/05 11:13:03;;;;;;;2.90;1.93;;;3.60;99.70;;;;;;4441042;32;20161;-71
2022/03/05 11:15:32;;;;;;;3.50;2.20;;;3.60;99.70;;;;;;4441084;32;20196;-72
2022/03/05 11:18:00;;;;;;;3.83;2.20;;;3.50;99.30;;;;;;4439390;32;20208;-73
2022/03/05 11:20:27;;;;;;;3.33;2.10;;;3.60;99.50;;;;;;4439869;32;20238;-73
2022/03/05 11:22:56;;;;;;;3.47;2.43;;;3.60;98.80;;;;;;4453610;32;20211;-71
2022/03/05 11:25:27;;;;;;;3.53;2.20;;;3.50;98.40;;;;;;4439418;32;20191;-72
2022/03/05 11:28:07;;;;;;;4.27;2.37;;;3.50;99.20;;;;;;4429455;32;20203;-71
2022/03/05 11:30:45;;;;;;;3.57;2.30;;;3.60;98.90;;;;;;4441345;32;20176;-72
2022/03/05 11:33:13;;;;;;;4.27;2.40;;;3.50;97.70;;;;;;4453841;32;20205;-71
2022/03/05 11:35:43;;;;;;;5.43;2.37;;;3.40;98.50;;;;;;4439529;32;20186;-70
2022/03/05 11:38:36;;;;;;;6.33;2.60;;;3.30;98.80;;;;;;4439087;32;20233;-71
2022/03/05 11:41:22;;;;;;;4.47;2.70;;;3.40;99.40;;;;;;4440145;32;20163;-71
2022/03/05 11:43:49;;;;;;;4.43;2.97;;;3.50;99.20;;;;;;4440891;32;20191;-73
2022/03/05 11:46:24;;;;;;;8.90;3.93;;;3.40;99.30;;;;;;4440970;32;20178;-72
2022/03/05 11:49:01;;;;;;;4.27;2.73;;;3.30;98.90;;;;;;4441496;32;20162;-72
2022/03/05 11:51:28;;;;;;;4.20;2.80;;;3.30;98.50;;;;;;4441099;32;20217;-72
2022/03/05 11:54:12;;;;;;;5.00;2.80;;;3.20;99.10;;;;;;4454723;32;20160;-72
2022/03/05 11:57:08;;;;;;;5.00;2.90;;;3.20;99.90;;;;;;4440343;32;20204;-73
2022/03/05 11:59:37;;;;;;;5.37;3.30;;;3.20;99.90;;;;;;4453940;32;20195;-72
2022/03/05 12:02:05;;;;;;;6.47;3.17;;;3.20;99.90;;;;;;4442239;32;20202;-72
2022/03/05 12:04:32;;;;;;;4.80;3.00;;;3.30;99.90;;;;;;4439916;32;20190;-72
2022/03/05 12:07:04;;;;;;;4.03;2.57;;;3.30;99.90;;;;;;4441703;32;20248;-72
2022/03/05 12:09:41;;;;;;;5.73;3.40;;;3.30;99.50;;;;;;4442296;32;20167;-71
2022/03/05 12:12:16;;;;;;;4.93;3.03;;;3.10;98.70;;;;;;4441179;32;20444;-73
2022/03/05 12:14:55;;;;;;;4.13;2.73;;;3.00;99.50;;;;;;4454788;32;20467;-72
2022/03/05 12:17:23;;;;;;;4.10;2.83;;;3.00;99.50;;;;;;4441445;32;20170;-71
2022/03/05 12:19:50;;;;;;;6.00;2.70;;;3.00;99.90;;;;;;4438698;32;20448;-71
2022/03/05 12:22:17;;;;;;;4.40;2.80;;;3.10;99.90;;;;;;4441655;32;20222;-73
2022/03/05 12:24:44;;;;;;;4.97;3.10;;;3.10;99.90;;;;;;4439909;32;20197;-72
2022/03/05 12:27:16;;;;;;;4.83;2.93;;;3.10;99.80;;;;;;4441591;32;20174;-72
2022/03/05 12:29:50;;;;;;;4.37;2.80;;;3.20;99.90;;;;;;4440841;32;20586;-72
2022/03/05 12:32:19;;;;;;;4.13;2.63;;;3.40;99.90;;;;;;4455999;32;20169;-73
2022/03/05 12:34:48;;;;;;;4.93;3.03;;;3.40;99.60;;;;;;4454775;32;20165;-72
2022/03/05 12:37:16;;;;;;;4.97;3.17;;;3.50;98.70;;;;;;4439999;32;20205;-72
2022/03/05 12:39:45;;;;;;;6.43;3.17;;;3.50;98.50;;;;;;4441371;32;20185;-72
2022/03/05 12:42:16;;;;;;;4.87;2.80;;;3.40;97.40;;;;;;4441763;32;20221;-72
2022/03/05 12:44:42;;;;;;;5.50;3.07;;;3.30;97.00;;;;;;4455621;32;20146;-71
2022/03/05 12:47:09;;;;;;;5.43;2.70;;;3.30;98.50;;;;;;4441691;32;20222;-71
2022/03/05 12:49:37;;;;;;;5.23;3.20;;;3.40;97.20;;;;;;4455718;32;20167;-72
2022/03/05 12:52:05;;;;;;;5.80;3.20;;;3.40;96.40;;;;;;4441756;32;20420;-72
2022/03/05 12:54:32;;;;;;;4.83;2.83;;;3.50;96.10;;;;;;4444009;32;20212;-70
2022/03/05 12:56:59;;;;;;;5.63;3.10;;;3.50;95.20;;;;;;4444325;32;20466;-70
2022/03/05 12:59:26;;;;;;;4.30;2.57;;;3.60;95.20;;;;;;4444669;32;20453;-73
2022/03/05 13:02:04;;;;;;;4.83;2.80;;;3.60;95.10;;;;;;4444803;32;20175;-72
2022/03/05 13:04:31;;;;;;;5.10;2.77;;;3.70;95.80;;;;;;4444450;32;20207;-72
2022/03/05 13:07:00;;;;;;;5.20;2.87;;;3.70;95.10;;;;;;4443133;32;20177;-72